Nearby METAR Reports


KSYR - Syracuse, New York, USA
Distance from station: SE 5mi, 8km
Updated: Mon, 23-Oct-2017 12:54am EDT
Mostly cloudy
Mostly cloudy
 Wind from SSE
Wind: SSE 10 mph , 17 km/h
Temperature: 63°F , 17°C
Dew Point: 45°F , 7°C
Humidity: 52%
Barometer: 30.21 inHg , 1023 hPa
Clouds: Mostly cloudy
Visibility: 10 miles , 16 km
Cloud details: Mostly cloudy 22000 ft
2017/10/23 04:54 KSYR 230454Z 16009KT 10SM BKN220 17/07 A3021 RMK AO2 SLP225 T01720067 402500056
KFZY - Fulton, New York, USA
Distance from station: NW 17mi, 27km
Updated: Mon, 23-Oct-2017 12:54am EDT
Clear
Clear
 Wind from varies
Wind: varies 5 mph , 7 km/h
Temperature: 61°F , 16°C
Dew Point: 45°F , 7°C
Humidity: 55%
Barometer: 30.20 inHg , 1022.7 hPa
Clouds: Clear
Visibility: 10 miles , 16 km
2017/10/23 04:54 KFZY 230454Z AUTO VRB04KT 10SM CLR 16/07 A3020 RMK AO2 SLP227 T01610072 402500089 $
 
KRME - Rome/Griffiss Af, New York, USA
Distance from station: E 39mi, 62km
Updated: Mon, 23-Oct-2017 12:53am EDT
Clear
Clear
 Wind from SSE
Wind: SSE 6 mph , 9 km/h
Temperature: 54°F , 12°C
Dew Point: 46°F , 8°C
Humidity: 77%
Barometer: 30.28 inHg , 1025.4 hPa
Clouds: Clear
Visibility: 10 miles , 16 km
2017/10/23 04:53 KRME 230453Z AUTO 15005KT 10SM CLR 12/08 A3028 RMK AO2 SLP251 T01170078 402440050
KITH - Ithaca/Tompkins, New York, USA
Distance from station: SSW 51mi, 82km
Updated: Mon, 23-Oct-2017 12:56am EDT
Clear
Clear
 Wind from SSE
Wind: SSE 12 mph , 19 km/h
Temperature: 59°F , 15°C
Dew Point: 43°F , 6°C
Humidity: 55%
Barometer: 30.26 inHg , 1024.7 hPa
Clouds: Clear
Visibility: 10 miles , 16 km
2017/10/23 04:56 KITH 230456Z AUTO 15010KT 10SM CLR 15/06 A3026 RMK AO2 SLP242 T01500061
 
KART - Watertown, New York, USA
Distance from station: N 56mi, 91km
Updated: Mon, 23-Oct-2017 12:56am EDT
Clear
Clear
 Wind from S
Wind: S 9 mph , 15 km/h
Temperature: 64°F , 18°C
Dew Point: 45°F , 7°C
Humidity: 49%
Barometer: 30.19 inHg , 1022.4 hPa
Clouds: Clear
Visibility: 10 miles , 16 km
2017/10/23 04:56 KART 230456Z AUTO 17008KT 10SM CLR 18/07 A3019 RMK AO2 SLP218 T01780072 402220044 $
KPEO - Penn Yan, New York, USA
Distance from station: SW 58mi, 93km
Updated: Mon, 23-Oct-2017 12:53am EDT
Clear
Clear
 Wind from S
Wind: S 6 mph , 9 km/h
Temperature: 61°F , 16°C
Dew Point: 43°F , 6°C
Humidity: 52%
Barometer: 30.22 inHg , 1023.4 hPa
Clouds: Clear
Visibility: 10 miles , 16 km
2017/10/23 04:53 KPEO 230453Z AUTO 19005KT 10SM CLR 16/06 A3022 RMK AO2 SLP228 T01610061 402330089
 
KGTB - Fort Drum/Wheele, New York, USA
Distance from station: NNE 64mi, 102km
Updated: Mon, 23-Oct-2017 12:56am EDT
Clear
Clear
 Wind from SE
Wind: SE 15 mph , 24 km/h
Temperature: 59°F , 15°C
Dew Point: 45°F , 7°C
Humidity: 59%
Barometer: 30.19 inHg , 1022.4 hPa
Clouds: Clear
Visibility: 10 miles , 16 km
2017/10/23 04:56 KGTB 230456Z AUTO 14013KT 10SM CLR 15/07 A3019 RMK AO2 SLP223 T01470068 402400100 CHINO RWY03 $
CWQP - Point Petre (mar, Ontario, Canada
Distance from station: NW 67mi, 107km
Updated: Mon, 23-Oct-2017 1:00am EDT

 Wind from S
Wind: S 20 mph , 31 km/h
Temperature: 63°F , 17°C
Dew Point: 55°F , 13°C
Humidity: 77%
2017/10/23 05:00 CWQP 230500Z AUTO 17017KT 17/13 RMK AO1 PK WND 17021/0431 SLP207 T01710129 56012
 
KBGM - Binghamton, New York, USA
Distance from station: S 67mi, 107km
Updated: Mon, 23-Oct-2017 12:53am EDT
Clear
Clear
 Wind from SSE
Wind: SSE 9 mph , 15 km/h
Temperature: 55°F , 13°C
Dew Point: 43°F , 6°C
Humidity: 63%
Barometer: 30.29 inHg , 1025.7 hPa
Clouds: Clear
Visibility: 10 miles , 16 km
2017/10/23 04:53 KBGM 230453Z 15008KT 10SM CLR 13/06 A3029 RMK AO2 SLP252 T01330061 402170089
CYGK - Kingston Arpt (m, Ontario, Canada
Distance from station: NNW 75mi, 121km
Updated: Sun, 22-Oct-2017 11:00pm EDT
NOT Current
Partly cloudy
Partly cloudy
 Wind from SSE
Wind: SSE 14 mph , 22 km/h, Gust: 22 mph , 35 km/h
Temperature: 64°F , 18°C
Dew Point: 54°F , 12°C
Humidity: 68%
Barometer: 30.18 inHg , 1022 hPa
Clouds: Partly cloudy
Visibility: 15 miles , 24 km
Cloud details: Partly cloudy 25000 ft
2017/10/23 03:00 CYGK 230300Z 16012G19KT 15SM SCT250 18/12 A3018 RMK CI3 LAST STFD OBS/NEXT 231000 UTC SLP222 DENSITY ALT 400FT